Terminal Aerodrome Forecast
Issued by NWS

Home | Current Version | Previous Version | Text Only | Print | Product List | Glossary On
Versions: 1 2 3 4 5 6 7 8 9 10 11 12 13 14 15 16
000
FTUS45 KTFX 230800 AAA
TAFBZN
TAF AMD
KBZN 230824Z 2308/2406 29010KT P6SM VCSH OVC040
     FM231600 26015G25KT P6SM SCT040 BKN070 PROB30 2319/2324 6SM
      -SHRA BKN040=

USA.gov is the U.S. government's official web portal to all federal, state and local government web resources and services.